sensor_id;sensor_type;location;lat;lon;timestamp;temperature;humidity
27797;DHT22;15177;50.844;4.412;2022-10-31T00:01:36;16.40;99.90
27797;DHT22;15177;50.844;4.412;2022-10-31T00:04:03;16.40;99.90
27797;DHT22;15177;50.844;4.412;2022-10-31T00:06:29;16.40;99.90
27797;DHT22;15177;50.844;4.412;2022-10-31T00:09:01;16.30;99.90
27797;DHT22;15177;50.844;4.412;2022-10-31T00:11:27;16.10;99.90
27797;DHT22;15177;50.844;4.412;2022-10-31T00:13:53;16.00;99.90
27797;DHT22;15177;50.844;4.412;2022-10-31T00:16:24;16.10;99.90
27797;DHT22;15177;50.844;4.412;2022-10-31T00:18:50;16.20;99.90
27797;DHT22;15177;50.844;4.412;2022-10-31T00:21:16;15.90;99.90
27797;DHT22;15177;50.844;4.412;2022-10-31T00:23:42;16.00;99.90
27797;DHT22;15177;50.844;4.412;2022-10-31T00:26:08;16.00;99.90
27797;DHT22;15177;50.844;4.412;2022-10-31T00:28:33;15.80;99.90
27797;DHT22;15177;50.844;4.412;2022-10-31T00:31:00;15.70;99.90
27797;DHT22;15177;50.844;4.412;2022-10-31T00:33:27;15.80;99.90
27797;DHT22;15177;50.844;4.412;2022-10-31T00:35:52;15.90;99.90
27797;DHT22;15177;50.844;4.412;2022-10-31T00:38:18;16.00;99.90
27797;DHT22;15177;50.844;4.412;2022-10-31T00:40:44;16.10;99.90
27797;DHT22;15177;50.844;4.412;2022-10-31T00:43:09;15.80;99.90
27797;DHT22;15177;50.844;4.412;2022-10-31T00:45:35;15.70;99.90
27797;DHT22;15177;50.844;4.412;2022-10-31T00:48:00;15.60;99.90
27797;DHT22;15177;50.844;4.412;2022-10-31T00:50:26;15.60;99.90
27797;DHT22;15177;50.844;4.412;2022-10-31T00:52:52;15.60;99.90
27797;DHT22;15177;50.844;4.412;2022-10-31T00:55:17;15.80;99.90
27797;DHT22;15177;50.844;4.412;2022-10-31T00:57:46;15.80;99.90
27797;DHT22;15177;50.844;4.412;2022-10-31T01:00:12;15.90;99.90
27797;DHT22;15177;50.844;4.412;2022-10-31T01:02:37;15.90;99.90
27797;DHT22;15177;50.844;4.412;2022-10-31T01:05:03;15.90;99.90
27797;DHT22;15177;50.844;4.412;2022-10-31T01:07:30;15.90;99.90
27797;DHT22;15177;50.844;4.412;2022-10-31T01:09:56;15.90;99.90
27797;DHT22;15177;50.844;4.412;2022-10-31T01:12:22;15.90;99.90
27797;DHT22;15177;50.844;4.412;2022-10-31T01:14:48;15.90;99.90
27797;DHT22;15177;50.844;4.412;2022-10-31T01:17:14;15.80;99.90
27797;DHT22;15177;50.844;4.412;2022-10-31T01:19:40;15.80;99.90
27797;DHT22;15177;50.844;4.412;2022-10-31T01:22:06;15.80;99.90
27797;DHT22;15177;50.844;4.412;2022-10-31T01:24:32;15.90;99.90
27797;DHT22;15177;50.844;4.412;2022-10-31T01:26:57;15.90;99.90
27797;DHT22;15177;50.844;4.412;2022-10-31T01:29:23;15.80;99.90
27797;DHT22;15177;50.844;4.412;2022-10-31T01:31:49;15.80;99.90
27797;DHT22;15177;50.844;4.412;2022-10-31T01:34:16;15.70;99.90
27797;DHT22;15177;50.844;4.412;2022-10-31T01:36:42;15.80;99.90
27797;DHT22;15177;50.844;4.412;2022-10-31T01:39:10;15.70;99.90
27797;DHT22;15177;50.844;4.412;2022-10-31T01:41:41;15.60;99.90
27797;DHT22;15177;50.844;4.412;2022-10-31T01:49:17;15.50;99.90
27797;DHT22;15177;50.844;4.412;2022-10-31T01:51:59;15.50;99.90
27797;DHT22;15177;50.844;4.412;2022-10-31T01:54:32;15.40;99.90
27797;DHT22;15177;50.844;4.412;2022-10-31T01:56:59;15.30;99.90
27797;DHT22;15177;50.844;4.412;2022-10-31T01:59:29;15.30;99.90
27797;DHT22;15177;50.844;4.412;2022-10-31T02:01:56;15.20;99.90
27797;DHT22;15177;50.844;4.412;2022-10-31T02:04:23;15.20;99.90
27797;DHT22;15177;50.844;4.412;2022-10-31T02:06:55;15.30;99.90
27797;DHT22;15177;50.844;4.412;2022-10-31T02:09:22;15.30;99.90
27797;DHT22;15177;50.844;4.412;2022-10-31T02:11:54;15.30;99.90
27797;DHT22;15177;50.844;4.412;2022-10-31T02:14:22;15.40;99.90
27797;DHT22;15177;50.844;4.412;2022-10-31T02:16:49;15.40;99.90
27797;DHT22;15177;50.844;4.412;2022-10-31T02:19:32;15.40;99.90
27797;DHT22;15177;50.844;4.412;2022-10-31T02:22:07;15.30;99.90
27797;DHT22;15177;50.844;4.412;2022-10-31T02:34:45;15.20;99.90
27797;DHT22;15177;50.844;4.412;2022-10-31T02:37:23;15.10;99.90
27797;DHT22;15177;50.844;4.412;2022-10-31T02:40:04;15.00;99.90
27797;DHT22;15177;50.844;4.412;2022-10-31T02:42:38;14.70;99.90
27797;DHT22;15177;50.844;4.412;2022-10-31T02:45:35;14.80;99.90
27797;DHT22;15177;50.844;4.412;2022-10-31T02:48:03;14.90;99.90
27797;DHT22;15177;50.844;4.412;2022-10-31T02:50:34;14.90;99.90
27797;DHT22;15177;50.844;4.412;2022-10-31T02:53:02;15.00;99.90
27797;DHT22;15177;50.844;4.412;2022-10-31T02:58:04;14.50;99.90
27797;DHT22;15177;50.844;4.412;2022-10-31T03:00:38;14.40;99.90
27797;DHT22;15177;50.844;4.412;2022-10-31T03:08:35;14.60;99.90
27797;DHT22;15177;50.844;4.412;2022-10-31T03:11:05;14.70;99.90
27797;DHT22;15177;50.844;4.412;2022-10-31T03:14:08;14.80;99.90
27797;DHT22;15177;50.844;4.412;2022-10-31T03:19:11;14.80;99.90
27797;DHT22;15177;50.844;4.412;2022-10-31T03:21:46;14.80;99.90
27797;DHT22;15177;50.844;4.412;2022-10-31T03:24:15;14.80;99.90
27797;DHT22;15177;50.844;4.412;2022-10-31T03:26:44;14.80;99.90
27797;DHT22;15177;50.844;4.412;2022-10-31T03:29:14;14.80;99.90
27797;DHT22;15177;50.844;4.412;2022-10-31T03:31:47;14.80;99.90
27797;DHT22;15177;50.844;4.412;2022-10-31T03:34:16;14.70;99.90
27797;DHT22;15177;50.844;4.412;2022-10-31T03:36:45;14.70;99.90
27797;DHT22;15177;50.844;4.412;2022-10-31T03:39:15;14.70;99.90
27797;DHT22;15177;50.844;4.412;2022-10-31T03:41:45;14.60;99.90
27797;DHT22;15177;50.844;4.412;2022-10-31T03:44:16;14.50;99.90
27797;DHT22;15177;50.844;4.412;2022-10-31T03:46:43;14.40;99.90
27797;DHT22;15177;50.844;4.412;2022-10-31T03:49:09;14.40;99.90
27797;DHT22;15177;50.844;4.412;2022-10-31T03:54:45;14.50;99.90
27797;DHT22;15177;50.844;4.412;2022-10-31T03:57:29;14.40;99.90
27797;DHT22;15177;50.844;4.412;2022-10-31T04:00:05;14.40;99.90
27797;DHT22;15177;50.844;4.412;2022-10-31T04:02:33;14.40;99.90
27797;DHT22;15177;50.844;4.412;2022-10-31T04:05:00;14.50;99.90
27797;DHT22;15177;50.844;4.412;2022-10-31T04:07:31;14.50;99.90
27797;DHT22;15177;50.844;4.412;2022-10-31T04:09:59;14.40;99.90
27797;DHT22;15177;50.844;4.412;2022-10-31T04:12:26;14.30;99.90
27797;DHT22;15177;50.844;4.412;2022-10-31T04:14:53;14.20;99.90
27797;DHT22;15177;50.844;4.412;2022-10-31T04:17:21;14.40;99.90
27797;DHT22;15177;50.844;4.412;2022-10-31T04:19:48;14.20;99.90
27797;DHT22;15177;50.844;4.412;2022-10-31T04:22:14;13.90;99.90
27797;DHT22;15177;50.844;4.412;2022-10-31T04:24:40;13.80;99.90
27797;DHT22;15177;50.844;4.412;2022-10-31T04:27:06;13.80;99.90
27797;DHT22;15177;50.844;4.412;2022-10-31T04:29:32;14.00;99.90
27797;DHT22;15177;50.844;4.412;2022-10-31T04:31:58;14.10;99.90
27797;DHT22;15177;50.844;4.412;2022-10-31T04:34:23;13.90;99.90
27797;DHT22;15177;50.844;4.412;2022-10-31T04:36:49;13.70;99.90
27797;DHT22;15177;50.844;4.412;2022-10-31T04:39:15;13.90;99.90
27797;DHT22;15177;50.844;4.412;2022-10-31T04:41:41;13.80;99.90
27797;DHT22;15177;50.844;4.412;2022-10-31T04:44:06;13.70;99.90
27797;DHT22;15177;50.844;4.412;2022-10-31T04:46:32;13.90;99.90
27797;DHT22;15177;50.844;4.412;2022-10-31T04:48:57;14.10;99.90
27797;DHT22;15177;50.844;4.412;2022-10-31T04:51:23;14.30;99.90
27797;DHT22;15177;50.844;4.412;2022-10-31T04:53:49;14.20;99.90
27797;DHT22;15177;50.844;4.412;2022-10-31T04:56:14;14.00;99.90
27797;DHT22;15177;50.844;4.412;2022-10-31T04:58:40;13.90;99.90
27797;DHT22;15177;50.844;4.412;2022-10-31T05:01:06;13.90;99.90
27797;DHT22;15177;50.844;4.412;2022-10-31T05:03:31;13.80;99.90
27797;DHT22;15177;50.844;4.412;2022-10-31T05:05:57;13.70;99.90
27797;DHT22;15177;50.844;4.412;2022-10-31T05:08:22;13.70;99.90
27797;DHT22;15177;50.844;4.412;2022-10-31T05:10:48;13.90;99.90
27797;DHT22;15177;50.844;4.412;2022-10-31T05:13:14;13.70;99.90
27797;DHT22;15177;50.844;4.412;2022-10-31T05:15:40;13.70;99.90
27797;DHT22;15177;50.844;4.412;2022-10-31T05:18:06;13.60;99.90
27797;DHT22;15177;50.844;4.412;2022-10-31T05:20:32;13.80;99.90
27797;DHT22;15177;50.844;4.412;2022-10-31T05:22:58;13.90;99.90
27797;DHT22;15177;50.844;4.412;2022-10-31T05:25:26;13.70;99.90
27797;DHT22;15177;50.844;4.412;2022-10-31T05:27:54;13.70;99.90
27797;DHT22;15177;50.844;4.412;2022-10-31T05:30:23;13.90;99.90
27797;DHT22;15177;50.844;4.412;2022-10-31T05:32:50;13.90;99.90
27797;DHT22;15177;50.844;4.412;2022-10-31T05:35:29;14.00;99.90
27797;DHT22;15177;50.844;4.412;2022-10-31T05:37:55;13.90;99.90
27797;DHT22;15177;50.844;4.412;2022-10-31T05:40:23;14.00;99.90
27797;DHT22;15177;50.844;4.412;2022-10-31T05:42:51;14.00;99.90
27797;DHT22;15177;50.844;4.412;2022-10-31T05:45:18;13.90;99.90
27797;DHT22;15177;50.844;4.412;2022-10-31T05:47:53;13.70;99.90
27797;DHT22;15177;50.844;4.412;2022-10-31T05:50:20;13.60;99.90
27797;DHT22;15177;50.844;4.412;2022-10-31T05:52:46;13.70;99.90
27797;DHT22;15177;50.844;4.412;2022-10-31T05:55:11;13.90;99.90
27797;DHT22;15177;50.844;4.412;2022-10-31T05:57:37;13.90;99.90
27797;DHT22;15177;50.844;4.412;2022-10-31T06:00:04;14.00;99.90
27797;DHT22;15177;50.844;4.412;2022-10-31T06:02:30;14.20;99.90
27797;DHT22;15177;50.844;4.412;2022-10-31T06:05:00;14.50;99.90
27797;DHT22;15177;50.844;4.412;2022-10-31T06:07:26;14.50;99.90
27797;DHT22;15177;50.844;4.412;2022-10-31T06:09:51;14.50;99.90
27797;DHT22;15177;50.844;4.412;2022-10-31T06:12:17;14.30;99.90
27797;DHT22;15177;50.844;4.412;2022-10-31T06:14:43;14.20;99.90
27797;DHT22;15177;50.844;4.412;2022-10-31T06:17:08;14.20;99.90
27797;DHT22;15177;50.844;4.412;2022-10-31T06:19:34;14.40;99.90
27797;DHT22;15177;50.844;4.412;2022-10-31T06:22:00;14.60;99.90
27797;DHT22;15177;50.844;4.412;2022-10-31T06:24:25;14.70;99.90
27797;DHT22;15177;50.844;4.412;2022-10-31T06:26:51;14.70;99.90
27797;DHT22;15177;50.844;4.412;2022-10-31T06:29:16;14.80;99.90
27797;DHT22;15177;50.844;4.412;2022-10-31T06:31:42;14.70;99.90
27797;DHT22;15177;50.844;4.412;2022-10-31T06:34:07;14.60;99.90
27797;DHT22;15177;50.844;4.412;2022-10-31T06:36:33;14.50;99.90
27797;DHT22;15177;50.844;4.412;2022-10-31T06:39:00;14.40;99.90
27797;DHT22;15177;50.844;4.412;2022-10-31T06:41:25;14.70;99.90
27797;DHT22;15177;50.844;4.412;2022-10-31T06:43:51;14.80;99.90
27797;DHT22;15177;50.844;4.412;2022-10-31T06:46:17;14.70;99.90
27797;DHT22;15177;50.844;4.412;2022-10-31T06:48:43;14.30;99.90
27797;DHT22;15177;50.844;4.412;2022-10-31T06:51:09;14.10;99.90
27797;DHT22;15177;50.844;4.412;2022-10-31T06:53:34;13.90;99.90
27797;DHT22;15177;50.844;4.412;2022-10-31T06:56:00;13.70;99.90
27797;DHT22;15177;50.844;4.412;2022-10-31T06:58:25;13.80;99.90
27797;DHT22;15177;50.844;4.412;2022-10-31T07:00:51;13.80;99.90
27797;DHT22;15177;50.844;4.412;2022-10-31T07:03:17;13.80;99.90
27797;DHT22;15177;50.844;4.412;2022-10-31T07:05:43;13.80;99.90
27797;DHT22;15177;50.844;4.412;2022-10-31T07:08:11;13.90;99.90
27797;DHT22;15177;50.844;4.412;2022-10-31T07:10:39;14.10;99.90
27797;DHT22;15177;50.844;4.412;2022-10-31T07:13:08;14.20;99.90
27797;DHT22;15177;50.844;4.412;2022-10-31T07:15:37;14.20;99.90
27797;DHT22;15177;50.844;4.412;2022-10-31T07:18:05;14.10;99.90
27797;DHT22;15177;50.844;4.412;2022-10-31T07:20:31;14.10;99.90
27797;DHT22;15177;50.844;4.412;2022-10-31T07:22:57;14.40;99.90
27797;DHT22;15177;50.844;4.412;2022-10-31T07:25:23;14.30;99.90
27797;DHT22;15177;50.844;4.412;2022-10-31T07:27:49;14.20;99.90
27797;DHT22;15177;50.844;4.412;2022-10-31T07:30:15;14.40;99.90
27797;DHT22;15177;50.844;4.412;2022-10-31T07:32:45;14.50;99.90
27797;DHT22;15177;50.844;4.412;2022-10-31T07:35:14;14.70;99.90
27797;DHT22;15177;50.844;4.412;2022-10-31T07:37:40;14.80;99.90
27797;DHT22;15177;50.844;4.412;2022-10-31T07:40:07;14.90;99.90
27797;DHT22;15177;50.844;4.412;2022-10-31T07:42:36;15.10;99.90
27797;DHT22;15177;50.844;4.412;2022-10-31T07:45:03;15.00;99.90
27797;DHT22;15177;50.844;4.412;2022-10-31T07:47:29;14.70;99.90
27797;DHT22;15177;50.844;4.412;2022-10-31T07:49:54;14.40;99.90
27797;DHT22;15177;50.844;4.412;2022-10-31T07:52:20;14.40;99.90
27797;DHT22;15177;50.844;4.412;2022-10-31T07:54:46;14.40;99.90
27797;DHT22;15177;50.844;4.412;2022-10-31T07:57:11;14.20;99.90
27797;DHT22;15177;50.844;4.412;2022-10-31T07:59:37;14.50;99.90
27797;DHT22;15177;50.844;4.412;2022-10-31T08:02:02;14.40;99.90
27797;DHT22;15177;50.844;4.412;2022-10-31T08:04:28;14.40;99.90
27797;DHT22;15177;50.844;4.412;2022-10-31T08:06:54;14.40;99.90
27797;DHT22;15177;50.844;4.412;2022-10-31T08:09:19;14.50;99.90
27797;DHT22;15177;50.844;4.412;2022-10-31T08:11:45;14.40;99.90
27797;DHT22;15177;50.844;4.412;2022-10-31T08:14:11;14.60;99.90
27797;DHT22;15177;50.844;4.412;2022-10-31T08:16:36;14.80;99.90
27797;DHT22;15177;50.844;4.412;2022-10-31T08:19:02;14.70;99.90
27797;DHT22;15177;50.844;4.412;2022-10-31T08:21:27;14.60;99.90
27797;DHT22;15177;50.844;4.412;2022-10-31T08:23:53;14.70;99.90
27797;DHT22;15177;50.844;4.412;2022-10-31T08:26:19;14.50;99.90
27797;DHT22;15177;50.844;4.412;2022-10-31T08:28:44;14.50;99.90
27797;DHT22;15177;50.844;4.412;2022-10-31T08:31:10;14.60;99.90
27797;DHT22;15177;50.844;4.412;2022-10-31T08:33:35;14.70;99.90
27797;DHT22;15177;50.844;4.412;2022-10-31T08:36:01;14.90;99.90
27797;DHT22;15177;50.844;4.412;2022-10-31T08:38:26;14.90;99.90
27797;DHT22;15177;50.844;4.412;2022-10-31T08:40:52;14.90;99.90
27797;DHT22;15177;50.844;4.412;2022-10-31T08:43:18;15.00;99.90
27797;DHT22;15177;50.844;4.412;2022-10-31T08:45:47;15.20;99.90
27797;DHT22;15177;50.844;4.412;2022-10-31T08:48:15;15.40;99.90
27797;DHT22;15177;50.844;4.412;2022-10-31T08:50:41;15.70;99.90
27797;DHT22;15177;50.844;4.412;2022-10-31T08:53:16;15.70;99.90
27797;DHT22;15177;50.844;4.412;2022-10-31T08:55:43;15.70;99.90
27797;DHT22;15177;50.844;4.412;2022-10-31T08:58:11;15.50;99.90
27797;DHT22;15177;50.844;4.412;2022-10-31T09:00:37;15.30;99.90
27797;DHT22;15177;50.844;4.412;2022-10-31T09:03:11;15.20;99.90
27797;DHT22;15177;50.844;4.412;2022-10-31T09:05:37;15.20;99.90
27797;DHT22;15177;50.844;4.412;2022-10-31T09:08:04;15.10;99.90
27797;DHT22;15177;50.844;4.412;2022-10-31T09:10:32;15.10;99.90
27797;DHT22;15177;50.844;4.412;2022-10-31T09:12:59;15.10;99.90
27797;DHT22;15177;50.844;4.412;2022-10-31T09:15:26;15.10;99.90
27797;DHT22;15177;50.844;4.412;2022-10-31T09:17:52;15.20;99.90
27797;DHT22;15177;50.844;4.412;2022-10-31T09:20:19;15.30;99.90
27797;DHT22;15177;50.844;4.412;2022-10-31T09:22:45;15.30;99.90
27797;DHT22;15177;50.844;4.412;2022-10-31T09:25:11;15.40;99.90
27797;DHT22;15177;50.844;4.412;2022-10-31T09:27:36;15.40;99.90
27797;DHT22;15177;50.844;4.412;2022-10-31T09:30:03;15.30;99.90
27797;DHT22;15177;50.844;4.412;2022-10-31T09:32:29;15.40;99.90
27797;DHT22;15177;50.844;4.412;2022-10-31T09:34:55;15.30;99.90
27797;DHT22;15177;50.844;4.412;2022-10-31T09:37:20;15.30;99.90
27797;DHT22;15177;50.844;4.412;2022-10-31T09:39:46;15.30;99.90
27797;DHT22;15177;50.844;4.412;2022-10-31T09:50:25;15.50;99.90
27797;DHT22;15177;50.844;4.412;2022-10-31T09:53:02;15.60;99.90
27797;DHT22;15177;50.844;4.412;2022-10-31T09:55:39;15.60;99.90
27797;DHT22;15177;50.844;4.412;2022-10-31T09:58:07;15.60;99.90
27797;DHT22;15177;50.844;4.412;2022-10-31T10:00:37;15.70;99.90
27797;DHT22;15177;50.844;4.412;2022-10-31T10:06:14;15.80;99.90
27797;DHT22;15177;50.844;4.412;2022-10-31T10:08:40;15.80;99.90
27797;DHT22;15177;50.844;4.412;2022-10-31T10:17:11;16.10;99.90
27797;DHT22;15177;50.844;4.412;2022-10-31T10:25:19;16.30;99.90
27797;DHT22;15177;50.844;4.412;2022-10-31T10:27:53;16.60;99.90
27797;DHT22;15177;50.844;4.412;2022-10-31T10:30:22;16.70;99.90
27797;DHT22;15177;50.844;4.412;2022-10-31T10:33:07;16.70;99.90
27797;DHT22;15177;50.844;4.412;2022-10-31T10:35:39;16.80;99.90
27797;DHT22;15177;50.844;4.412;2022-10-31T10:38:57;17.10;99.90
27797;DHT22;15177;50.844;4.412;2022-10-31T10:41:12;17.20;99.90
27797;DHT22;15177;50.844;4.412;2022-10-31T10:43:39;17.20;99.90
27797;DHT22;15177;50.844;4.412;2022-10-31T10:54:39;17.00;99.90
27797;DHT22;15177;50.844;4.412;2022-10-31T10:59:57;17.20;99.90
27797;DHT22;15177;50.844;4.412;2022-10-31T11:02:26;17.20;99.90
27797;DHT22;15177;50.844;4.412;2022-10-31T11:04:57;17.40;99.90
27797;DHT22;15177;50.844;4.412;2022-10-31T11:07:23;17.40;99.90
27797;DHT22;15177;50.844;4.412;2022-10-31T11:09:49;17.60;99.90
27797;DHT22;15177;50.844;4.412;2022-10-31T11:12:24;17.50;99.90
27797;DHT22;15177;50.844;4.412;2022-10-31T11:14:57;17.40;99.90
27797;DHT22;15177;50.844;4.412;2022-10-31T11:17:31;17.40;99.90
27797;DHT22;15177;50.844;4.412;2022-10-31T11:20:25;17.50;99.90
27797;DHT22;15177;50.844;4.412;2022-10-31T11:23:01;17.60;99.90
27797;DHT22;15177;50.844;4.412;2022-10-31T11:25:28;17.60;99.90
27797;DHT22;15177;50.844;4.412;2022-10-31T11:30:27;17.50;99.90
27797;DHT22;15177;50.844;4.412;2022-10-31T11:32:53;17.60;99.90
27797;DHT22;15177;50.844;4.412;2022-10-31T11:35:22;17.70;99.90
27797;DHT22;15177;50.844;4.412;2022-10-31T11:37:52;17.50;99.90
27797;DHT22;15177;50.844;4.412;2022-10-31T11:40:25;17.60;99.90
27797;DHT22;15177;50.844;4.412;2022-10-31T11:42:54;17.50;99.90
27797;DHT22;15177;50.844;4.412;2022-10-31T11:47:50;17.40;99.90
27797;DHT22;15177;50.844;4.412;2022-10-31T11:50:26;17.60;99.90
27797;DHT22;15177;50.844;4.412;2022-10-31T11:52:55;17.70;99.90
27797;DHT22;15177;50.844;4.412;2022-10-31T11:55:38;17.80;99.90
27797;DHT22;15177;50.844;4.412;2022-10-31T11:58:18;17.90;99.90
27797;DHT22;15177;50.844;4.412;2022-10-31T12:00:50;17.80;99.90
27797;DHT22;15177;50.844;4.412;2022-10-31T12:08:27;17.90;99.90
27797;DHT22;15177;50.844;4.412;2022-10-31T12:17:00;18.20;99.90
27797;DHT22;15177;50.844;4.412;2022-10-31T12:19:50;18.20;99.90
27797;DHT22;15177;50.844;4.412;2022-10-31T12:25:21;18.20;99.90
27797;DHT22;15177;50.844;4.412;2022-10-31T12:33:37;18.40;99.90
27797;DHT22;15177;50.844;4.412;2022-10-31T12:47:21;18.40;99.90
27797;DHT22;15177;50.844;4.412;2022-10-31T12:52:59;18.20;99.90
27797;DHT22;15177;50.844;4.412;2022-10-31T12:58:32;18.50;99.90
27797;DHT22;15177;50.844;4.412;2022-10-31T13:01:10;18.60;99.90
27797;DHT22;15177;50.844;4.412;2022-10-31T13:03:49;18.70;99.90
27797;DHT22;15177;50.844;4.412;2022-10-31T13:06:24;18.80;99.90
27797;DHT22;15177;50.844;4.412;2022-10-31T13:08:59;18.80;99.90
27797;DHT22;15177;50.844;4.412;2022-10-31T13:11:53;18.80;99.90
27797;DHT22;15177;50.844;4.412;2022-10-31T13:14:29;18.80;99.90
27797;DHT22;15177;50.844;4.412;2022-10-31T13:16:56;18.80;99.90
27797;DHT22;15177;50.844;4.412;2022-10-31T13:19:34;19.00;99.90
27797;DHT22;15177;50.844;4.412;2022-10-31T13:24:59;18.90;99.90
27797;DHT22;15177;50.844;4.412;2022-10-31T13:27:45;19.00;99.90
27797;DHT22;15177;50.844;4.412;2022-10-31T13:30:22;19.10;99.90
27797;DHT22;15177;50.844;4.412;2022-10-31T13:33:07;19.00;99.90
27797;DHT22;15177;50.844;4.412;2022-10-31T13:38:20;18.90;99.90
27797;DHT22;15177;50.844;4.412;2022-10-31T13:41:09;18.80;99.90
27797;DHT22;15177;50.844;4.412;2022-10-31T13:46:26;18.70;99.90
27797;DHT22;15177;50.844;4.412;2022-10-31T13:48:59;18.80;99.90
27797;DHT22;15177;50.844;4.412;2022-10-31T13:51:35;18.80;99.90
27797;DHT22;15177;50.844;4.412;2022-10-31T13:54:19;19.00;99.90
27797;DHT22;15177;50.844;4.412;2022-10-31T13:56:49;18.90;99.90
27797;DHT22;15177;50.844;4.412;2022-10-31T13:59:18;18.70;99.90
27797;DHT22;15177;50.844;4.412;2022-10-31T14:04:27;18.80;99.90
27797;DHT22;15177;50.844;4.412;2022-10-31T14:07:04;18.80;99.90
27797;DHT22;15177;50.844;4.412;2022-10-31T14:09:37;18.90;99.90
27797;DHT22;15177;50.844;4.412;2022-10-31T14:12:07;18.90;99.90
27797;DHT22;15177;50.844;4.412;2022-10-31T14:14:41;18.90;99.90
27797;DHT22;15177;50.844;4.412;2022-10-31T14:17:17;18.80;99.90
27797;DHT22;15177;50.844;4.412;2022-10-31T14:19:56;18.90;99.90
27797;DHT22;15177;50.844;4.412;2022-10-31T14:22:29;18.90;99.90
27797;DHT22;15177;50.844;4.412;2022-10-31T14:24:55;18.90;99.90
27797;DHT22;15177;50.844;4.412;2022-10-31T14:29:49;18.80;99.90
27797;DHT22;15177;50.844;4.412;2022-10-31T14:32:20;18.80;99.90
27797;DHT22;15177;50.844;4.412;2022-10-31T14:40:05;18.70;99.90
27797;DHT22;15177;50.844;4.412;2022-10-31T14:42:49;18.70;99.90
27797;DHT22;15177;50.844;4.412;2022-10-31T14:51:21;18.70;99.90
27797;DHT22;15177;50.844;4.412;2022-10-31T14:53:53;18.70;99.90
27797;DHT22;15177;50.844;4.412;2022-10-31T14:56:26;18.70;99.90
27797;DHT22;15177;50.844;4.412;2022-10-31T14:58:55;18.60;99.90
27797;DHT22;15177;50.844;4.412;2022-10-31T15:03:50;18.60;99.90
27797;DHT22;15177;50.844;4.412;2022-10-31T15:06:20;18.50;99.90
27797;DHT22;15177;50.844;4.412;2022-10-31T15:08:51;18.40;99.90
27797;DHT22;15177;50.844;4.412;2022-10-31T15:11:20;18.50;99.90
27797;DHT22;15177;50.844;4.412;2022-10-31T15:13:51;18.40;99.90
27797;DHT22;15177;50.844;4.412;2022-10-31T15:16:24;18.40;99.90
27797;DHT22;15177;50.844;4.412;2022-10-31T15:19:03;18.50;99.90
27797;DHT22;15177;50.844;4.412;2022-10-31T15:21:30;18.50;99.90
27797;DHT22;15177;50.844;4.412;2022-10-31T15:23:57;18.40;99.90
27797;DHT22;15177;50.844;4.412;2022-10-31T15:26:33;18.30;99.90
27797;DHT22;15177;50.844;4.412;2022-10-31T15:29:05;18.20;99.90
27797;DHT22;15177;50.844;4.412;2022-10-31T15:31:31;18.20;99.90
27797;DHT22;15177;50.844;4.412;2022-10-31T15:34:04;18.00;99.90
27797;DHT22;15177;50.844;4.412;2022-10-31T15:36:30;17.90;99.90
27797;DHT22;15177;50.844;4.412;2022-10-31T15:38:58;17.90;99.90
27797;DHT22;15177;50.844;4.412;2022-10-31T15:41:31;17.90;99.90
27797;DHT22;15177;50.844;4.412;2022-10-31T15:44:05;17.80;99.90
27797;DHT22;15177;50.844;4.412;2022-10-31T15:46:32;17.70;99.90
27797;DHT22;15177;50.844;4.412;2022-10-31T15:48:59;17.80;99.90
27797;DHT22;15177;50.844;4.412;2022-10-31T15:51:27;17.70;99.90
27797;DHT22;15177;50.844;4.412;2022-10-31T15:53:54;17.70;99.90
27797;DHT22;15177;50.844;4.412;2022-10-31T15:56:26;17.60;99.90
27797;DHT22;15177;50.844;4.412;2022-10-31T15:58:53;17.60;99.90
27797;DHT22;15177;50.844;4.412;2022-10-31T16:01:28;17.70;99.90
27797;DHT22;15177;50.844;4.412;2022-10-31T16:06:35;17.60;99.90
27797;DHT22;15177;50.844;4.412;2022-10-31T16:09:01;17.60;99.90
27797;DHT22;15177;50.844;4.412;2022-10-31T16:11:38;17.60;99.90
27797;DHT22;15177;50.844;4.412;2022-10-31T16:14:18;17.60;99.90
27797;DHT22;15177;50.844;4.412;2022-10-31T16:16:49;17.60;99.90
27797;DHT22;15177;50.844;4.412;2022-10-31T16:19:24;17.60;99.90
27797;DHT22;15177;50.844;4.412;2022-10-31T16:22:01;17.50;99.90
27797;DHT22;15177;50.844;4.412;2022-10-31T16:24:38;17.40;99.90
27797;DHT22;15177;50.844;4.412;2022-10-31T16:27:26;17.40;99.90
27797;DHT22;15177;50.844;4.412;2022-10-31T16:29:59;17.40;99.90
27797;DHT22;15177;50.844;4.412;2022-10-31T16:32:36;17.30;99.90
27797;DHT22;15177;50.844;4.412;2022-10-31T16:37:37;17.10;99.90
27797;DHT22;15177;50.844;4.412;2022-10-31T16:40:03;17.10;99.90
27797;DHT22;15177;50.844;4.412;2022-10-31T16:42:29;17.00;99.90
27797;DHT22;15177;50.844;4.412;2022-10-31T16:44:55;17.10;99.90
27797;DHT22;15177;50.844;4.412;2022-10-31T16:47:21;17.20;99.90
27797;DHT22;15177;50.844;4.412;2022-10-31T16:49:48;17.20;99.90
27797;DHT22;15177;50.844;4.412;2022-10-31T16:52:15;17.20;99.90
27797;DHT22;15177;50.844;4.412;2022-10-31T16:54:41;17.10;99.90
27797;DHT22;15177;50.844;4.412;2022-10-31T16:57:09;17.00;99.90
27797;DHT22;15177;50.844;4.412;2022-10-31T16:59:37;17.00;99.90
27797;DHT22;15177;50.844;4.412;2022-10-31T17:02:03;16.90;99.90
27797;DHT22;15177;50.844;4.412;2022-10-31T17:04:29;16.90;99.90
27797;DHT22;15177;50.844;4.412;2022-10-31T17:06:55;16.90;99.90
27797;DHT22;15177;50.844;4.412;2022-10-31T17:09:20;16.80;99.90
27797;DHT22;15177;50.844;4.412;2022-10-31T17:11:48;16.70;99.90
27797;DHT22;15177;50.844;4.412;2022-10-31T17:14:16;16.80;99.90
27797;DHT22;15177;50.844;4.412;2022-10-31T17:16:42;16.80;99.90
27797;DHT22;15177;50.844;4.412;2022-10-31T17:19:10;16.90;99.90
27797;DHT22;15177;50.844;4.412;2022-10-31T17:21:37;16.90;99.90
27797;DHT22;15177;50.844;4.412;2022-10-31T17:24:03;16.90;99.90
27797;DHT22;15177;50.844;4.412;2022-10-31T17:26:28;16.90;99.90
27797;DHT22;15177;50.844;4.412;2022-10-31T17:28:54;16.90;99.90
27797;DHT22;15177;50.844;4.412;2022-10-31T17:31:27;16.80;99.90
27797;DHT22;15177;50.844;4.412;2022-10-31T17:33:54;16.90;99.90
27797;DHT22;15177;50.844;4.412;2022-10-31T17:36:20;16.90;99.90
27797;DHT22;15177;50.844;4.412;2022-10-31T17:38:46;17.00;99.90
27797;DHT22;15177;50.844;4.412;2022-10-31T17:41:11;16.90;99.90
27797;DHT22;15177;50.844;4.412;2022-10-31T17:43:37;16.90;99.90
27797;DHT22;15177;50.844;4.412;2022-10-31T17:46:03;16.90;99.90
27797;DHT22;15177;50.844;4.412;2022-10-31T17:48:29;16.90;99.90
27797;DHT22;15177;50.844;4.412;2022-10-31T17:50:59;16.90;99.90
27797;DHT22;15177;50.844;4.412;2022-10-31T17:53:26;16.90;99.90
27797;DHT22;15177;50.844;4.412;2022-10-31T17:55:52;16.90;99.90
27797;DHT22;15177;50.844;4.412;2022-10-31T17:58:17;16.90;99.90
27797;DHT22;15177;50.844;4.412;2022-10-31T18:00:43;16.90;99.90